»·PEaware :: SKY410 KLVM-6S0

SKY410 :: KLVM-6S0

FLIGHT INFORMATION

Flight Status: Arrived
Operator:
Sky High Charters
More flights by this operator :: More flights under this callsign
Pilot: Timothy L. (20714)
Aircraft: PIPER PA-46-310/350P MALIBU MIRAGE
(PA46)
More flights by this aircraft type
Origin: KLVM Mission
United States
Destination: 6S0 Big Timber
United States
More flights between these airports :: More routes between these airports
Route: +LVM2 LVM V86 REEPO
File this flight plan on PilotEdge
Remarks: SKY7 LEG2
Altitude:
(Current/Filed)
10,000ft
Speed:
(Current/Filed)
170kts
Departed: 24-Nov-19 01:23 PM
Arrived: 24-Nov-19 02:02 PM
Distance/Time
Traveled:
21nm/0:39
Distance/Time
To Go:
Arrived

Flight Plot

Page will automatically refresh every two minutes.

Flight plan parsing failed; only flown route is shown


Map Options




Map Legend


Flown Route
Filed Route
Departure Airport
Arrival Airport
Navaid (VOR, NDB)
Fix

Horizontal Profiles

Position Reports

Time Latitude Longitude Heading Altitude Ground
Speed
24-Nov-19 13:10 45.696816 -110.452605 236 4651ft 0kts
24-Nov-19 13:11 45.696816 -110.452605 236 4651ft 0kts
24-Nov-19 13:12 45.696816 -110.452605 236 4651ft 0kts
24-Nov-19 13:13 45.696816 -110.452605 236 4651ft 0kts
24-Nov-19 13:14 45.696816 -110.452605 236 4651ft 0kts
24-Nov-19 13:15 45.696622 -110.452574 163 4651ft 5kts
24-Nov-19 13:16 45.695445 -110.450896 62 4653ft 11kts
24-Nov-19 13:17 45.697670 -110.446347 56 4652ft 18kts
24-Nov-19 13:18 45.699841 -110.441927 53 4650ft 17kts
24-Nov-19 13:19 45.702025 -110.438010 16 4642ft 9kts
24-Nov-19 13:20 45.702788 -110.437434 124 4639ft 3kts
24-Nov-19 13:21 45.702191 -110.437279 230 4639ft 13kts
24-Nov-19 13:22 45.693832 -110.455500 239 5138ft 100kts
24-Nov-19 13:23 45.695169 -110.491345 279 5882ft 144kts
24-Nov-19 13:24 45.691514 -110.539366 262 6622ft 168kts
24-Nov-19 13:25 45.686010 -110.592213 261 7358ft 177kts
24-Nov-19 13:26 45.681003 -110.643554 277 8198ft 175kts
24-Nov-19 13:27 45.705991 -110.652894 36 9288ft 160kts
24-Nov-19 13:28 45.710354 -110.610189 102 9951ft 180kts
24-Nov-19 13:29 45.700915 -110.552952 103 9945ft 209kts
24-Nov-19 13:30 45.699448 -110.489176 86 9941ft 218kts
24-Nov-19 13:31 45.703582 -110.421158 84 9945ft 220kts
24-Nov-19 13:32 45.707788 -110.358729 84 9926ft 209kts
24-Nov-19 13:33 45.711688 -110.300125 84 9929ft 200kts
24-Nov-19 13:34 45.715430 -110.242656 84 9930ft 196kts
24-Nov-19 13:35 45.719108 -110.185599 84 9930ft 195kts
24-Nov-19 13:36 45.722650 -110.130142 84 9939ft 195kts
24-Nov-19 13:37 45.726194 -110.074298 84 9940ft 195kts
24-Nov-19 13:38 45.729764 -110.017656 84 10000ft 194kts
24-Nov-19 13:39 45.733327 -109.960581 84 9991ft 195kts
24-Nov-19 13:40 45.736844 -109.903646 84 9991ft 195kts
24-Nov-19 13:41 45.740896 -109.845970 84 9990ft 195kts
24-Nov-19 13:42 45.745068 -109.787775 84 9990ft 195kts
24-Nov-19 13:44 45.748406 -109.730223 86 9998ft 195kts
24-Nov-19 13:45 45.751640 -109.672836 84 9997ft 195kts
24-Nov-19 13:46 45.755178 -109.614333 84 10000ft 195kts
24-Nov-19 13:47 45.758595 -109.559390 81 9979ft 158kts
24-Nov-19 13:48 45.780260 -109.545791 329 9790ft 129kts
24-Nov-19 13:49 45.796203 -109.575171 302 9073ft 144kts
24-Nov-19 13:50 45.811868 -109.610941 302 8265ft 158kts
24-Nov-19 13:51 45.828351 -109.648015 302 7460ft 164kts
24-Nov-19 13:52 45.845205 -109.685680 302 7007ft 164kts
24-Nov-19 13:53 45.856497 -109.727440 259 6940ft 172kts
24-Nov-19 13:54 45.847927 -109.771732 252 6427ft 147kts
24-Nov-19 13:55 45.841446 -109.804449 254 6399ft 106kts
24-Nov-19 13:56 45.835929 -109.832273 254 6394ft 101kts
24-Nov-19 13:57 45.830993 -109.857110 253 6073ft 92kts
24-Nov-19 13:58 45.826251 -109.881036 254 5567ft 87kts
24-Nov-19 13:59 45.821614 -109.904347 254 5119ft 81kts
24-Nov-19 14:00 45.817192 -109.927382 257 5057ft 92kts
24-Nov-19 14:01 45.812909 -109.952583 248 4699ft 81kts
24-Nov-19 14:02 45.807896 -109.973114 253 4496ft 26kts
24-Nov-19 14:03 45.808651 -109.973597 249 4496ft 0kts
24-Nov-19 14:03 45.808651 -109.973597 249 4496ft 0kts
24-Nov-19 14:04 45.808651 -109.973597 249 4496ft 0kts
24-Nov-19 14:06 45.808651 -109.973597 249 4496ft 0kts
24-Nov-19 14:07 45.808651 -109.973597 249 4496ft 0kts
24-Nov-19 14:07 45.808651 -109.973597 249 4496ft 0kts

Navigation Log

Ident Type
Flight plan parsing failed, navigation log unavailable